Time;durP1;ratioP1;P1;durP2;ratioP2;P2;SDS_P1;SDS_P2;PMS_P1;PMS_P2;Temp;Humidity;BMP_temperature;BMP_pressure;BME280_temperature;BME280_humidity;BME280_pressure;Samples;Min_cycle;Max_cycle;Signal;HPM_P1;HPM_P2
2023/08/21 00:02:43;;;;;;;3.58;2.22;;;;;;;18.76;100.00;101377.34;5947676;29;20367;-90
2023/08/21 00:05:46;;;;;;;9.68;4.07;;;;;;;18.73;100.00;101374.03;5952567;29;20092;-90
2023/08/21 00:08:48;;;;;;;3.35;2.30;;;;;;;18.69;100.00;101375.31;5958001;29;20099;-90
2023/08/21 00:11:49;;;;;;;3.47;2.00;;;;;;;18.65;100.00;101363.47;5969943;29;20058;-89
2023/08/21 00:14:51;;;;;;;5.93;2.28;;;;;;;18.62;100.00;101365.59;5956970;29;20062;-90
2023/08/21 00:17:53;;;;;;;3.78;1.73;;;;;;;18.58;100.00;101370.31;5957892;29;20039;-89
2023/08/21 00:20:55;;;;;;;4.20;1.90;;;;;;;18.56;100.00;101368.81;5957786;29;20438;-89
2023/08/21 00:23:58;;;;;;;4.85;2.20;;;;;;;18.49;100.00;101363.38;5957274;29;20125;-91
2023/08/21 00:27:00;;;;;;;5.70;1.60;;;;;;;18.45;100.00;101360.22;5947335;29;20495;-91
2023/08/21 00:30:02;;;;;;;2.90;1.67;;;;;;;18.40;100.00;101362.47;5965187;29;20046;-92
2023/08/21 00:33:05;;;;;;;2.03;1.80;;;;;;;18.36;100.00;101365.53;5956826;29;20063;-92
2023/08/21 00:36:07;;;;;;;2.00;1.48;;;;;;;18.29;100.00;101345.19;5969406;29;20165;-91
2023/08/21 00:39:09;;;;;;;2.35;1.45;;;;;;;18.28;100.00;101351.41;5955194;29;20417;-91
2023/08/21 00:42:11;;;;;;;3.60;1.48;;;;;;;18.27;100.00;101351.56;5952384;29;20047;-89
2023/08/21 00:45:13;;;;;;;2.03;1.25;;;;;;;18.25;100.00;101356.13;5946428;29;20098;-89
2023/08/21 00:48:16;;;;;;;4.32;1.83;;;;;;;18.17;100.00;101348.19;5955449;29;20754;-89
2023/08/21 00:51:19;;;;;;;4.07;1.60;;;;;;;18.13;100.00;101347.66;5952871;29;20054;-89
2023/08/21 00:54:21;;;;;;;2.25;1.40;;;;;;;18.10;100.00;101345.34;5953997;29;20055;-89
2023/08/21 00:57:23;;;;;;;2.78;1.50;;;;;;;18.07;100.00;101343.03;5957318;29;20525;-89
2023/08/21 01:00:27;;;;;;;4.88;1.40;;;;;;;18.02;100.00;101345.28;5965203;29;20062;-89
2023/08/21 01:03:29;;;;;;;2.50;1.35;;;;;;;18.00;100.00;101336.75;5954071;29;20444;-89
2023/08/21 01:06:31;;;;;;;4.68;1.70;;;;;;;17.99;100.00;101342.97;5955062;29;20055;-89
2023/08/21 01:09:38;;;;;;;4.57;1.52;;;;;;;17.95;100.00;101346.84;5934029;29;20571;-89
2023/08/21 01:12:50;;;;;;;1.42;1.27;;;;;;;17.91;100.00;101342.88;5941217;29;20039;-89
2023/08/21 01:15:55;;;;;;;1.40;1.27;;;;;;;17.90;100.00;101343.84;5958347;29;20201;-89
2023/08/21 01:18:59;;;;;;;3.85;1.80;;;;;;;17.86;100.00;101344.16;5954313;29;20409;-89
2023/08/21 01:22:01;;;;;;;3.70;1.30;;;;;;;17.85;100.00;101337.25;5958670;29;20176;-89
2023/08/21 01:25:09;;;;;;;3.22;1.48;;;;;;;17.87;100.00;101337.13;5944784;29;20529;-89
2023/08/21 01:28:11;;;;;;;3.45;1.33;;;;;;;17.88;100.00;101344.00;5938732;29;20068;-88
2023/08/21 01:31:30;;;;;;;3.35;1.40;;;;;;;17.86;100.00;101353.78;5956542;29;20047;-89
2023/08/21 01:34:34;;;;;;;3.17;1.48;;;;;;;17.82;100.00;101348.03;5941291;29;20043;-89
2023/08/21 01:37:36;;;;;;;2.05;1.38;;;;;;;17.78;100.00;101351.06;5949912;29;20047;-89
2023/08/21 01:40:40;;;;;;;2.03;1.17;;;;;;;17.75;100.00;101346.94;5935676;29;20054;-89
2023/08/21 01:43:42;;;;;;;3.55;1.30;;;;;;;17.72;100.00;101352.50;5947986;29;20114;-89
2023/08/21 01:46:44;;;;;;;4.80;1.40;;;;;;;17.70;100.00;101351.81;5969115;29;20054;-89
2023/08/21 01:49:45;;;;;;;2.88;1.30;;;;;;;17.64;100.00;101353.22;5957810;29;20054;-89
2023/08/21 01:52:47;;;;;;;4.07;1.27;;;;;;;17.59;100.00;101357.25;5960413;29;20051;-89
2023/08/21 01:55:49;;;;;;;3.75;1.15;;;;;;;17.55;100.00;101355.91;5961047;29;20047;-89
2023/08/21 01:58:51;;;;;;;1.70;1.05;;;;;;;17.53;100.00;101358.66;5956450;29;20050;-89
2023/08/21 02:01:53;;;;;;;1.40;1.10;;;;;;;17.51;100.00;101357.16;5960931;29;20046;-89
2023/08/21 02:04:55;;;;;;;1.83;1.13;;;;;;;17.48;100.00;101353.03;5959698;29;20542;-89
2023/08/21 02:07:57;;;;;;;4.07;1.40;;;;;;;17.41;100.00;101350.16;5957124;29;20184;-89
2023/08/21 02:11:01;;;;;;;1.92;1.40;;;;;;;17.40;100.00;101348.53;5948869;29;20133;-89
2023/08/21 02:14:04;;;;;;;2.28;1.25;;;;;;;17.38;100.00;101341.78;5958709;29;20057;-89
2023/08/21 02:17:06;;;;;;;3.05;1.30;;;;;;;17.35;100.00;101342.09;5959015;29;20047;-89
2023/08/21 02:20:09;;;;;;;3.95;1.55;;;;;;;17.35;100.00;101342.91;5948144;29;20043;-90
2023/08/21 02:23:11;;;;;;;5.22;1.85;;;;;;;17.37;100.00;101359.28;5963149;29;20054;-89
2023/08/21 02:26:13;;;;;;;2.20;1.42;;;;;;;17.36;100.00;101362.88;5959395;29;20446;-89
2023/08/21 02:29:16;;;;;;;2.42;1.30;;;;;;;17.37;100.00;101377.63;5976589;29;20474;-91
2023/08/21 02:32:18;;;;;;;4.18;1.45;;;;;;;17.32;100.00;101373.78;5959411;29;20526;-91
2023/08/21 02:35:21;;;;;;;2.35;1.30;;;;;;;17.31;100.00;101374.75;5964221;29;20171;-91
2023/08/21 02:38:24;;;;;;;4.40;1.40;;;;;;;17.29;100.00;101372.28;5960223;29;20219;-91
2023/08/21 02:41:26;;;;;;;2.63;1.23;;;;;;;17.28;100.00;101367.19;5950380;29;20459;-90
2023/08/21 02:44:28;;;;;;;3.13;1.23;;;;;;;17.31;100.00;101367.72;5961257;29;20188;-90
2023/08/21 02:47:30;;;;;;;2.45;1.65;;;;;;;17.35;100.00;101363.84;5961507;29;20425;-90
2023/08/21 02:50:33;;;;;;;2.35;1.48;;;;;;;17.41;100.00;101360.63;5955143;29;20063;-90
2023/08/21 02:53:35;;;;;;;2.85;1.80;;;;;;;17.46;100.00;101372.47;5963595;29;20054;-90
2023/08/21 02:56:37;;;;;;;3.58;1.80;;;;;;;17.50;100.00;101353.72;5956732;29;20077;-89
2023/08/21 02:59:39;;;;;;;3.25;1.52;;;;;;;17.56;100.00;101362.78;5957981;29;20491;-90
2023/08/21 03:02:43;;;;;;;2.45;1.30;;;;;;;17.58;100.00;101358.22;5958412;29;20057;-90
2023/08/21 03:05:46;;;;;;;2.78;1.70;;;;;;;17.53;100.00;101363.06;5952277;29;20528;-90
2023/08/21 03:08:48;;;;;;;3.47;1.67;;;;;;;17.53;100.00;101363.06;5949686;29;20177;-90
2023/08/21 03:11:50;;;;;;;3.38;1.73;;;;;;;17.56;100.00;101358.34;5944821;29;20243;-91
2023/08/21 03:14:52;;;;;;;2.63;1.60;;;;;;;17.58;100.00;101355.59;5951418;29;20487;-91
2023/08/21 03:17:54;;;;;;;3.40;1.50;;;;;;;17.62;100.00;101355.16;5933112;29;20139;-90
2023/08/21 03:20:57;;;;;;;3.78;1.40;;;;;;;17.67;100.00;101362.59;5972828;29;20055;-90
2023/08/21 03:23:59;;;;;;;3.13;1.55;;;;;;;17.71;100.00;101358.69;5954898;29;20289;-90
2023/08/21 03:27:05;;;;;;;3.28;1.48;;;;;;;17.69;100.00;101362.41;5948374;29;20047;-90
2023/08/21 03:30:08;;;;;;;2.15;1.30;;;;;;;17.64;100.00;101362.88;5962358;29;20192;-91
2023/08/21 03:33:12;;;;;;;3.90;1.58;;;;;;;17.61;100.00;101358.75;5954101;29;20051;-91
2023/08/21 03:36:14;;;;;;;7.15;4.57;;;;;;;17.57;100.00;101370.50;5960769;29;20216;-91
2023/08/21 03:39:22;;;;;;;4.35;1.70;;;;;;;17.53;100.00;101376.97;5957068;29;20413;-92
2023/08/21 03:42:25;;;;;;;3.80;1.95;;;;;;;17.57;100.00;101365.25;5952664;29;20062;-91
2023/08/21 03:45:27;;;;;;;5.40;2.00;;;;;;;17.63;100.00;101369.88;5946605;29;20050;-90
2023/08/21 03:48:29;;;;;;;5.68;2.22;;;;;;;17.67;100.00;101362.59;5945221;29;20051;-90
2023/08/21 03:51:31;;;;;;;1.88;1.67;;;;;;;17.72;100.00;101359.53;5945650;29;20498;-90
2023/08/21 03:54:33;;;;;;;4.78;1.90;;;;;;;17.77;100.00;101363.34;5963800;29;20176;-90
2023/08/21 03:57:35;;;;;;;3.65;1.60;;;;;;;17.79;100.00;101361.41;5956369;29;20058;-90
2023/08/21 04:00:40;;;;;;;3.63;2.00;;;;;;;17.81;100.00;101356.03;5934387;29;20051;-91
2023/08/21 04:03:42;;;;;;;6.82;2.15;;;;;;;17.82;100.00;101353.28;5953991;29;20117;-91
2023/08/21 04:06:44;;;;;;;3.65;1.80;;;;;;;17.80;100.00;101355.22;5953521;29;20050;-91
2023/08/21 04:09:47;;;;;;;5.90;1.88;;;;;;;17.72;100.00;101355.09;5954033;29;20075;-90
2023/08/21 04:12:49;;;;;;;4.40;1.90;;;;;;;17.61;100.00;101358.75;5962053;29;20047;-91
2023/08/21 04:15:54;;;;;;;4.78;2.05;;;;;;;17.57;100.00;101356.59;5958366;29;20504;-91
2023/08/21 04:18:57;;;;;;;5.03;1.75;;;;;;;17.52;100.00;101364.06;5955710;29;20255;-91
2023/08/21 04:21:59;;;;;;;5.53;1.98;;;;;;;17.50;100.00;101374.66;5956356;29;20078;-91
2023/08/21 04:25:02;;;;;;;4.38;2.08;;;;;;;17.53;100.00;101373.53;5947063;29;20069;-90
2023/08/21 04:28:04;;;;;;;4.03;2.20;;;;;;;17.63;100.00;101371.69;5956513;29;20051;-91
2023/08/21 04:31:07;;;;;;;4.85;1.80;;;;;;;17.72;100.00;101360.34;5938529;29;20058;-91
2023/08/21 04:34:09;;;;;;;3.42;2.10;;;;;;;17.82;100.00;101360.31;5953172;29;20043;-91
2023/08/21 04:37:11;;;;;;;4.88;1.85;;;;;;;17.89;100.00;101373.63;5963209;29;20046;-91
2023/08/21 04:40:15;;;;;;;4.30;1.90;;;;;;;17.96;100.00;101378.16;5940123;29;20581;-91
2023/08/21 04:43:20;;;;;;;3.95;1.80;;;;;;;17.97;100.00;101379.78;5957758;29;20051;-91
2023/08/21 04:46:25;;;;;;;6.63;1.98;;;;;;;18.00;100.00;101381.28;5993219;29;20149;-91
2023/08/21 04:49:27;;;;;;;2.72;1.65;;;;;;;18.05;100.00;101379.84;5945574;29;20543;-91
2023/08/21 04:52:30;;;;;;;7.38;2.10;;;;;;;18.11;100.00;101370.59;5966901;29;20534;-91
2023/08/21 04:55:34;;;;;;;3.38;1.67;;;;;;;18.19;100.00;101377.72;5956937;29;20051;-91
2023/08/21 04:58:37;;;;;;;5.32;1.88;;;;;;;18.28;100.00;101369.78;5958370;29;20047;-91
2023/08/21 05:01:41;;;;;;;3.90;1.65;;;;;;;18.32;100.00;101383.38;5953084;29;20062;-91
2023/08/21 05:04:46;;;;;;;7.88;1.83;;;;;;;18.33;100.00;101387.63;5952018;29;20154;-91
2023/08/21 05:07:48;;;;;;;3.25;2.30;;;;;;;18.37;100.00;101378.50;5958959;29;20521;-91
2023/08/21 05:10:55;;;;;;;5.63;1.67;;;;;;;18.40;100.00;101372.94;5955254;29;20058;-91
2023/08/21 05:13:58;;;;;;;3.15;1.92;;;;;;;18.40;100.00;101377.38;5955713;29;20050;-91
2023/08/21 05:17:04;;;;;;;4.13;2.00;;;;;;;18.35;100.00;101387.50;5961114;29;20042;-91
2023/08/21 05:20:06;;;;;;;4.72;1.80;;;;;;;18.28;100.00;101382.88;5954195;29;20049;-91
2023/08/21 05:23:09;;;;;;;5.28;2.20;;;;;;;18.24;100.00;101380.69;5954983;29;20047;-91
2023/08/21 05:26:11;;;;;;;3.22;1.80;;;;;;;18.24;100.00;101383.31;5954336;29;20050;-90
2023/08/21 05:29:13;;;;;;;3.72;2.05;;;;;;;18.15;100.00;101379.78;5951334;29;20047;-91
2023/08/21 05:32:15;;;;;;;3.92;1.90;;;;;;;18.15;100.00;101377.16;5933492;29;20063;-91
2023/08/21 05:35:19;;;;;;;2.72;1.77;;;;;;;18.13;100.00;101381.72;5963618;29;20501;-91
2023/08/21 05:38:21;;;;;;;5.40;2.50;;;;;;;18.15;100.00;101387.66;5953531;29;20292;-91
2023/08/21 05:41:24;;;;;;;4.60;1.83;;;;;;;18.16;100.00;101377.97;5959396;29;20204;-91
2023/08/21 05:44:28;;;;;;;4.30;2.00;;;;;;;18.18;100.00;101389.16;5963388;29;20047;-91
2023/08/21 05:47:32;;;;;;;3.85;1.80;;;;;;;18.20;100.00;101392.44;5960359;29;20054;-91
2023/08/21 05:50:36;;;;;;;4.88;1.88;;;;;;;18.26;100.00;101403.16;5952362;29;20054;-90
2023/08/21 05:53:38;;;;;;;5.28;2.42;;;;;;;18.36;100.00;101402.25;5976639;29;20631;-91
2023/08/21 05:56:41;;;;;;;5.82;2.13;;;;;;;18.55;100.00;101403.88;5962371;29;20180;-91
2023/08/21 05:59:45;;;;;;;5.07;1.90;;;;;;;18.83;100.00;101400.22;5947647;29;20108;-91
2023/08/21 06:02:47;;;;;;;3.10;1.52;;;;;;;19.22;100.00;101398.94;5947044;29;20520;-91
2023/08/21 06:06:09;;;;;;;3.92;1.90;;;;;;;19.55;100.00;101395.50;5948169;29;20712;-91
2023/08/21 06:09:11;;;;;;;3.85;2.00;;;;;;;19.81;100.00;101397.22;5957749;29;20459;-91
2023/08/21 06:12:14;;;;;;;5.32;2.17;;;;;;;19.92;100.00;101393.47;5955814;29;20122;-91
2023/08/21 06:15:17;;;;;;;4.97;2.40;;;;;;;19.95;100.00;101399.25;5949433;29;20123;-91
2023/08/21 06:18:20;;;;;;;6.68;2.03;;;;;;;19.97;100.00;101402.53;5947604;29;20441;-91
2023/08/21 06:21:22;;;;;;;3.15;1.50;;;;;;;20.04;100.00;101400.06;5974911;29;20061;-90
2023/08/21 06:24:25;;;;;;;4.45;1.95;;;;;;;20.11;100.00;101395.00;5960598;29;20547;-90
2023/08/21 06:27:31;;;;;;;4.70;2.10;;;;;;;20.19;100.00;101395.81;5945158;29;20468;-90
2023/08/21 06:30:42;;;;;;;2.05;1.85;;;;;;;20.16;100.00;101397.97;5971138;29;20058;-90
2023/08/21 06:33:44;;;;;;;4.78;2.03;;;;;;;20.11;100.00;101393.19;5937927;29;20062;-89
2023/08/21 06:36:46;;;;;;;5.68;1.90;;;;;;;20.17;100.00;101394.31;5972873;29;20043;-90
2023/08/21 06:39:48;;;;;;;5.47;2.05;;;;;;;20.19;100.00;101395.00;5962037;29;20035;-90
2023/08/21 06:42:50;;;;;;;4.45;2.58;;;;;;;20.32;100.00;101395.34;5964499;29;20058;-90
2023/08/21 06:45:55;;;;;;;6.03;2.22;;;;;;;20.50;100.00;101405.72;5956351;29;20059;-91
2023/08/21 06:48:57;;;;;;;4.38;2.03;;;;;;;20.74;100.00;101407.50;5943422;29;20053;-90
2023/08/21 06:51:59;;;;;;;8.80;2.08;;;;;;;20.93;100.00;101416.88;5958609;29;20109;-90
2023/08/21 06:55:02;;;;;;;5.32;1.98;;;;;;;21.14;100.00;101416.34;5954010;29;20295;-91
2023/08/21 06:58:04;;;;;;;5.30;2.00;;;;;;;21.25;100.00;101425.69;5961205;29;20615;-90
2023/08/21 07:01:06;;;;;;;8.45;2.30;;;;;;;21.40;100.00;101412.66;5958532;29;20163;-90
2023/08/21 07:04:09;;;;;;;5.88;1.88;;;;;;;21.40;100.00;101418.75;5939374;29;20055;-90
2023/08/21 07:07:11;;;;;;;7.50;2.00;;;;;;;21.44;100.00;101406.03;5951016;29;20176;-90
2023/08/21 07:10:13;;;;;;;7.07;2.10;;;;;;;21.41;100.00;101407.22;5958629;29;20066;-90
2023/08/21 07:13:15;;;;;;;7.20;1.55;;;;;;;21.20;100.00;101410.38;5964793;29;20514;-90
2023/08/21 07:16:18;;;;;;;3.85;1.58;;;;;;;20.94;100.00;101407.97;5959109;29;20471;-91
2023/08/21 07:19:20;;;;;;;4.13;1.52;;;;;;;20.81;100.00;101405.84;5952609;29;20156;-90
2023/08/21 07:22:22;;;;;;;3.22;1.50;;;;;;;20.68;100.00;101415.25;5949907;29;20058;-91
2023/08/21 07:25:25;;;;;;;3.15;1.52;;;;;;;20.73;100.00;101412.94;5948300;29;20047;-90
2023/08/21 07:28:29;;;;;;;4.75;1.35;;;;;;;20.96;100.00;101408.63;5955761;29;20545;-90
2023/08/21 07:31:31;;;;;;;5.13;1.73;;;;;;;21.35;100.00;101421.03;5961692;29;20855;-90
2023/08/21 07:34:33;;;;;;;3.65;1.90;;;;;;;21.85;100.00;101419.03;5972654;29;20290;-90
2023/08/21 07:37:36;;;;;;;3.08;1.65;;;;;;;22.18;100.00;101427.53;5956915;29;20546;-90
2023/08/21 07:40:38;;;;;;;3.15;1.63;;;;;;;22.46;100.00;101429.69;5953133;29;20851;-91
2023/08/21 07:43:43;;;;;;;4.90;1.83;;;;;;;22.66;100.00;101436.13;5955403;29;20110;-90
2023/08/21 07:46:45;;;;;;;3.65;1.40;;;;;;;22.77;100.00;101432.22;5950874;29;20116;-90
2023/08/21 07:49:48;;;;;;;4.65;1.73;;;;;;;22.88;100.00;101431.81;5935180;29;20054;-89
2023/08/21 07:52:50;;;;;;;3.47;1.85;;;;;;;22.87;100.00;101437.25;5957770;29;20211;-91
2023/08/21 07:55:52;;;;;;;3.85;1.67;;;;;;;22.96;100.00;101442.28;5966095;29;20058;-91
2023/08/21 07:58:54;;;;;;;5.70;1.95;;;;;;;23.10;100.00;101435.38;5961559;29;20110;-92
2023/08/21 08:01:56;;;;;;;4.90;1.80;;;;;;;23.20;100.00;101443.03;5954421;29;20475;-91
2023/08/21 08:04:59;;;;;;;6.20;2.15;;;;;;;23.22;100.00;101431.28;5947788;29;20046;-92
2023/08/21 08:08:01;;;;;;;3.90;1.70;;;;;;;23.34;100.00;101433.50;5953742;29;20667;-91
2023/08/21 08:11:04;;;;;;;4.50;1.75;;;;;;;23.50;100.00;101433.28;5953319;29;20063;-91
2023/08/21 08:14:06;;;;;;;4.40;1.52;;;;;;;23.62;100.00;101436.28;5958557;29;20383;-90
2023/08/21 08:17:08;;;;;;;5.63;1.77;;;;;;;23.69;100.00;101425.78;5935737;29;20159;-90
2023/08/21 08:20:11;;;;;;;7.82;1.88;;;;;;;23.75;100.00;101425.06;5944014;29;20043;-91
2023/08/21 08:23:13;;;;;;;5.32;1.85;;;;;;;23.85;100.00;101425.59;5952906;29;20509;-91
2023/08/21 08:26:16;;;;;;;6.25;1.92;;;;;;;23.97;100.00;101429.38;5955873;29;20054;-90
2023/08/21 08:29:18;;;;;;;7.47;1.70;;;;;;;24.02;100.00;101431.47;5943548;29;20063;-91
2023/08/21 08:32:21;;;;;;;7.60;2.05;;;;;;;23.97;100.00;101425.91;5955989;29;20111;-92
2023/08/21 08:35:23;;;;;;;4.18;1.77;;;;;;;23.98;100.00;101428.38;5955934;29;20082;-91
2023/08/21 08:38:25;;;;;;;4.75;1.50;;;;;;;24.13;100.00;101430.16;5958792;29;20047;-91
2023/08/21 08:41:43;;;;;;;6.03;1.88;;;;;;;24.14;100.00;101429.16;5947117;29;20072;-91
2023/08/21 08:44:46;;;;;;;7.25;2.42;;;;;;;23.88;100.00;101417.28;5955920;29;20204;-91
2023/08/21 08:47:48;;;;;;;5.15;1.90;;;;;;;23.74;100.00;101432.19;5958900;29;20054;-92
2023/08/21 08:50:52;;;;;;;4.38;1.58;;;;;;;24.02;100.00;101427.00;5952536;29;20046;-92
2023/08/21 08:53:55;;;;;;;4.60;1.70;;;;;;;24.33;100.00;101425.06;5957451;29;20095;-92
2023/08/21 08:56:59;;;;;;;3.17;1.45;;;;;;;24.37;100.00;101429.78;5975056;29;20409;-92
2023/08/21 09:00:04;;;;;;;4.25;1.90;;;;;;;24.37;100.00;101418.34;5961271;29;20051;-91
2023/08/21 09:03:06;;;;;;;4.32;1.60;;;;;;;24.56;100.00;101419.56;5957186;29;20519;-91
2023/08/21 09:06:08;;;;;;;5.50;1.80;;;;;;;24.62;100.00;101408.19;5957119;29;20107;-91
2023/08/21 09:09:12;;;;;;;4.65;1.45;;;;;;;24.45;100.00;101410.31;5960088;29;20035;-92
2023/08/21 09:12:14;;;;;;;3.30;1.42;;;;;;;24.29;100.00;101412.19;5956061;29;20054;-91
2023/08/21 09:15:17;;;;;;;6.00;1.77;;;;;;;24.40;100.00;101404.75;5952442;29;20047;-91
2023/08/21 09:18:19;;;;;;;5.72;1.42;;;;;;;24.51;100.00;101409.56;5949893;29;20043;-91
2023/08/21 09:21:23;;;;;;;3.40;1.77;;;;;;;24.42;100.00;101403.56;5947910;29;20070;-92
2023/08/21 09:24:25;;;;;;;3.78;1.60;;;;;;;24.31;100.00;101401.41;5950697;29;20107;-92
2023/08/21 09:27:27;;;;;;;1.65;1.05;;;;;;;24.30;100.00;101391.84;5954483;29;20050;-92
2023/08/21 09:30:29;;;;;;;3.42;1.40;;;;;;;24.47;100.00;101397.69;5948042;29;20086;-91
2023/08/21 09:33:34;;;;;;;3.13;1.42;;;;;;;24.68;100.00;101400.31;5944477;29;20290;-91
2023/08/21 09:36:39;;;;;;;4.47;1.52;;;;;;;25.07;100.00;101406.88;5952475;29;20096;-92
2023/08/21 09:39:42;;;;;;;3.90;1.63;;;;;;;25.38;100.00;101395.03;5948351;29;20602;-92
2023/08/21 09:42:45;;;;;;;3.70;1.30;;;;;;;25.63;100.00;101400.63;5957044;29;20081;-92
2023/08/21 09:45:50;;;;;;;4.22;1.25;;;;;;;25.71;100.00;101395.16;5949877;29;20444;-92
2023/08/21 09:48:53;;;;;;;5.05;1.50;;;;;;;25.72;100.00;101391.47;5940473;29;20499;-92
2023/08/21 09:51:57;;;;;;;6.15;1.80;;;;;;;25.59;100.00;101396.75;5960858;29;20050;-93
2023/08/21 09:55:00;;;;;;;4.03;1.45;;;;;;;25.50;100.00;101396.09;5955664;29;20128;-93
2023/08/21 09:58:03;;;;;;;5.38;1.45;;;;;;;25.49;100.00;101399.78;5950115;29;20118;-93
2023/08/21 10:01:13;;;;;;;6.32;1.48;;;;;;;25.63;100.00;101399.81;5947474;29;20055;-93
2023/08/21 10:04:17;;;;;;;5.05;1.20;;;;;;;26.15;100.00;101407.09;5950502;29;20047;-93
2023/08/21 10:07:24;;;;;;;4.18;1.40;;;;;;;26.53;100.00;101403.03;5953940;29;20055;-93
2023/08/21 10:10:28;;;;;;;3.38;1.58;;;;;;;26.89;100.00;101407.09;5959385;29;20699;-92
2023/08/21 10:13:31;;;;;;;4.45;1.40;;;;;;;27.12;100.00;101411.91;5962166;29;20127;-93
2023/08/21 10:16:33;;;;;;;4.38;1.50;;;;;;;27.30;100.00;101405.97;5947675;29;20055;-93
2023/08/21 10:19:35;;;;;;;5.00;1.40;;;;;;;27.17;100.00;101407.59;5971874;29;20167;-93
2023/08/21 10:22:45;;;;;;;3.17;1.48;;;;;;;27.14;100.00;101413.34;5959571;29;20130;-93
2023/08/21 10:25:47;;;;;;;6.03;1.73;;;;;;;27.03;100.00;101412.16;5962096;29;20047;-91
2023/08/21 10:28:54;;;;;;;7.32;1.75;;;;;;;26.82;100.00;101413.22;5953313;29;20905;-92
2023/08/21 10:32:04;;;;;;;7.10;1.95;;;;;;;26.60;100.00;101409.16;5947346;29;20146;-93
2023/08/21 10:35:16;;;;;;;10.48;2.35;;;;;;;26.69;100.00;101405.28;5956424;29;20492;-93
2023/08/21 10:38:18;;;;;;;2.83;1.30;;;;;;;26.94;100.00;101399.31;5958048;29;20051;-94
2023/08/21 10:41:26;;;;;;;3.35;1.40;;;;;;;27.44;100.00;101392.41;5959548;29;20377;-93
2023/08/21 10:44:48;;;;;;;4.55;1.30;;;;;;;27.80;100.00;101392.81;5944249;29;20522;-92
2023/08/21 10:47:51;;;;;;;2.58;1.52;;;;;;;27.63;100.00;101393.31;5953265;29;20421;-95
2023/08/21 10:50:56;;;;;;;1.75;1.00;;;;;;;27.53;98.47;101376.19;5959766;29;20054;-93
2023/08/21 10:54:11;;;;;;;2.78;1.35;;;;;;;27.57;100.00;101378.22;5961840;29;20133;-94
2023/08/21 10:57:13;;;;;;;3.58;1.30;;;;;;;27.79;100.00;101386.69;5949082;29;20063;-93
2023/08/21 11:00:17;;;;;;;4.25;1.27;;;;;;;28.26;98.89;101389.84;5940220;29;20058;-93
2023/08/21 11:03:20;;;;;;;3.33;1.17;;;;;;;28.29;100.00;101388.59;5954886;29;20052;-92
2023/08/21 11:06:23;;;;;;;4.85;1.17;;;;;;;28.33;100.00;101387.13;5952192;29;20074;-93
2023/08/21 11:09:25;;;;;;;4.22;1.15;;;;;;;28.28;100.00;101379.00;5955155;29;20043;-93
2023/08/21 11:12:29;;;;;;;2.70;1.00;;;;;;;28.19;98.02;101377.63;5958503;29;20050;-93
2023/08/21 11:15:34;;;;;;;3.92;1.20;;;;;;;28.05;93.77;101382.22;5936854;29;20051;-93
2023/08/21 11:18:40;;;;;;;3.35;1.30;;;;;;;28.07;100.00;101382.81;5954823;29;20055;-94
2023/08/21 11:21:43;;;;;;;3.20;1.30;;;;;;;28.04;100.00;101377.94;5959579;29;20051;-93
2023/08/21 11:24:47;;;;;;;4.18;1.58;;;;;;;28.09;100.00;101373.59;5958435;29;20081;-93
2023/08/21 11:27:52;;;;;;;4.13;1.80;;;;;;;28.45;100.00;101389.94;5957176;29;20066;-93
2023/08/21 11:30:56;;;;;;;2.42;1.15;;;;;;;28.77;100.00;101380.81;5973664;29;20065;-93
2023/08/21 11:33:58;;;;;;;3.17;1.25;;;;;;;28.66;97.89;101386.84;5958101;29;20039;-92
2023/08/21 11:37:11;;;;;;;4.00;1.25;;;;;;;28.18;95.02;101384.00;5956758;29;20050;-93
2023/08/21 11:40:14;;;;;;;13.10;2.28;;;;;;;27.64;100.00;101384.31;5961212;29;20093;-93
2023/08/21 11:43:17;;;;;;;2.35;1.00;;;;;;;27.30;100.00;101390.81;5956263;29;20085;-93
2023/08/21 11:46:19;;;;;;;3.90;1.42;;;;;;;27.15;100.00;101387.56;5946712;29;20062;-93
2023/08/21 11:49:23;;;;;;;2.58;1.10;;;;;;;27.01;100.00;101394.78;5953353;29;20474;-92
2023/08/21 11:52:29;;;;;;;2.05;0.95;;;;;;;26.90;100.00;101388.25;5940743;29;20055;-93
2023/08/21 11:55:31;;;;;;;2.08;1.17;;;;;;;27.02;100.00;101383.13;5953916;29;20454;-92
2023/08/21 11:58:33;;;;;;;4.47;1.40;;;;;;;27.19;100.00;101392.28;5949321;29;20538;-90
2023/08/21 12:01:35;;;;;;;3.28;1.10;;;;;;;27.25;100.00;101386.16;5949883;29;20081;-93
2023/08/21 12:04:37;;;;;;;4.40;1.05;;;;;;;27.42;100.00;101385.66;5949410;29;20042;-93
2023/08/21 12:07:40;;;;;;;3.47;1.08;;;;;;;27.31;100.00;101394.31;5950883;29;20047;-93
2023/08/21 12:10:42;;;;;;;3.38;1.08;;;;;;;27.06;100.00;101401.09;5958858;29;20112;-93
2023/08/21 12:13:44;;;;;;;2.47;1.00;;;;;;;26.82;100.00;101388.50;5950831;29;20046;-92
2023/08/21 12:16:46;;;;;;;5.25;1.20;;;;;;;26.78;100.00;101372.16;5959515;29;20089;-93
2023/08/21 12:19:49;;;;;;;4.15;1.30;;;;;;;26.74;100.00;101380.75;5963213;29;20050;-93
2023/08/21 12:22:51;;;;;;;6.75;1.40;;;;;;;26.85;100.00;101372.94;5949003;29;20043;-93
2023/08/21 12:25:53;;;;;;;2.80;1.10;;;;;;;27.04;100.00;101378.41;5955034;29;20121;-91
2023/08/21 12:28:55;;;;;;;3.42;1.10;;;;;;;27.15;100.00;101382.25;5959123;29;20054;-92
2023/08/21 12:31:57;;;;;;;3.70;1.50;;;;;;;27.26;100.00;101376.31;5957230;29;20383;-92
2023/08/21 12:35:00;;;;;;;6.15;1.35;;;;;;;27.24;100.00;101378.38;5958943;29;20413;-91
2023/08/21 12:38:10;;;;;;;5.78;1.55;;;;;;;27.23;100.00;101382.88;5949807;29;20511;-91
2023/08/21 12:41:12;;;;;;;3.08;1.35;;;;;;;27.05;100.00;101382.69;5951623;29;20054;-94
2023/08/21 12:44:15;;;;;;;3.35;1.65;;;;;;;27.02;100.00;101381.28;5956501;29;20046;-93
2023/08/21 12:47:17;;;;;;;7.53;1.33;;;;;;;27.01;100.00;101384.16;5956463;29;20047;-92
2023/08/21 12:50:19;;;;;;;2.50;1.30;;;;;;;26.91;100.00;101383.78;5954856;29;20184;-92
2023/08/21 12:53:21;;;;;;;4.30;1.17;;;;;;;26.68;100.00;101381.56;5947128;29;20051;-92
2023/08/21 12:56:23;;;;;;;2.97;1.08;;;;;;;26.69;100.00;101375.25;5957119;29;20504;-92
2023/08/21 12:59:25;;;;;;;4.03;1.30;;;;;;;27.04;100.00;101376.56;5964400;29;20079;-92
2023/08/21 13:02:27;;;;;;;3.67;1.40;;;;;;;27.13;100.00;101384.31;5949268;29;20094;-92
2023/08/21 13:05:29;;;;;;;2.42;1.35;;;;;;;27.08;100.00;101384.97;5953833;29;20046;-92
2023/08/21 13:08:32;;;;;;;2.08;1.23;;;;;;;27.32;100.00;101382.63;5948483;29;20043;-92
2023/08/21 13:11:34;;;;;;;2.75;0.90;;;;;;;27.58;100.00;101366.56;5956450;29;20050;-91
2023/08/21 13:14:36;;;;;;;4.25;1.80;;;;;;;27.80;100.00;101367.03;5958549;29;20051;-93
2023/08/21 13:17:38;;;;;;;4.15;1.10;;;;;;;27.75;100.00;101356.22;5959248;29;20051;-92
2023/08/21 13:20:42;;;;;;;3.13;1.75;;;;;;;27.35;100.00;101353.78;5950277;29;20051;-92
2023/08/21 13:23:44;;;;;;;3.53;1.42;;;;;;;27.48;100.00;101358.22;5956852;29;20051;-94
2023/08/21 13:26:46;;;;;;;5.32;1.33;;;;;;;27.88;100.00;101347.38;5954731;29;20080;-93
2023/08/21 13:29:48;;;;;;;5.10;1.38;;;;;;;27.94;100.00;101346.47;5951297;29;20407;-93
2023/08/21 13:32:51;;;;;;;4.38;1.83;;;;;;;27.62;100.00;101343.78;5953854;29;20432;-93
2023/08/21 13:35:53;;;;;;;1.55;1.20;;;;;;;27.40;100.00;101339.84;5955574;29;20083;-90
2023/08/21 13:38:55;;;;;;;28.35;8.88;;;;;;;27.25;100.00;101343.63;5949597;29;20072;-91
2023/08/21 13:41:56;;;;;;;5.50;1.80;;;;;;;27.10;100.00;101350.97;5946644;29;20408;-92
2023/08/21 13:44:58;;;;;;;5.22;1.67;;;;;;;27.05;100.00;101343.63;5962695;29;20398;-91
2023/08/21 13:48:03;;;;;;;9.05;1.77;;;;;;;27.10;100.00;101345.66;5949674;29;20039;-92
2023/08/21 13:51:05;;;;;;;5.95;1.40;;;;;;;27.36;100.00;101333.34;5951915;29;20078;-92
2023/08/21 13:54:09;;;;;;;4.55;1.58;;;;;;;27.47;100.00;101327.31;5963665;29;20645;-92
2023/08/21 13:57:11;;;;;;;3.22;1.20;;;;;;;27.05;100.00;101322.38;5938548;29;20510;-92
2023/08/21 14:00:13;;;;;;;3.72;1.60;;;;;;;26.68;100.00;101331.09;5973459;29;20069;-92
2023/08/21 14:03:15;;;;;;;3.45;1.30;;;;;;;26.33;100.00;101323.38;5949908;29;20050;-92